Time;durP1;ratioP1;P1;durP2;ratioP2;P2;SDS_P1;SDS_P2;PMS_P1;PMS_P2;Temp;Humidity;BMP_temperature;BMP_pressure;BME280_temperature;BME280_humidity;BME280_pressure;Samples;Min_cycle;Max_cycle;Signal;HPM_P1;HPM_P2
2023/03/09 00:01:03;;;;;;;1.80;1.23;;;;;;;8.94;100.00;96076.59;4121574;28;20203;-48
2023/03/09 00:03:04;;;;;;;1.75;1.60;;;;;;;8.98;100.00;96085.00;4125929;28;20237;-47
2023/03/09 00:05:09;;;;;;;1.55;1.45;;;;;;;8.98;100.00;96068.63;4122767;28;20660;-48
2023/03/09 00:07:11;;;;;;;0.90;0.90;;;;;;;8.89;100.00;96067.69;4125707;28;20245;-48
2023/03/09 00:09:13;;;;;;;2.30;1.13;;;;;;;8.93;100.00;96083.16;4130886;28;20246;-49
2023/03/09 00:11:16;;;;;;;1.45;1.35;;;;;;;8.90;100.00;96091.91;4127782;28;20691;-48
2023/03/09 00:13:19;;;;;;;1.55;1.10;;;;;;;8.90;100.00;96086.47;4117131;28;20293;-47
2023/03/09 00:15:21;;;;;;;2.35;1.00;;;;;;;8.89;100.00;96094.97;4133218;28;20852;-47
2023/03/09 00:17:23;;;;;;;1.13;1.13;;;;;;;8.93;100.00;96104.16;4104824;28;20215;-48
2023/03/09 00:19:27;;;;;;;2.38;2.17;;;;;;;8.86;100.00;96109.19;4118766;28;20257;-47
2023/03/09 00:23:37;;;;;;;1.13;0.93;;;;;;;8.78;100.00;96109.88;4118368;28;20217;-47
2023/03/09 00:25:39;;;;;;;1.02;1.02;;;;;;;8.83;100.00;96117.97;4135944;28;20322;-48
2023/03/09 00:27:42;;;;;;;1.00;1.00;;;;;;;8.77;100.00;96109.06;4124923;28;20293;-50
2023/03/09 00:29:43;;;;;;;1.85;1.20;;;;;;;8.67;100.00;96097.50;4117748;28;20246;-48
2023/03/09 00:31:45;;;;;;;1.20;0.98;;;;;;;8.65;100.00;96105.16;4120533;28;20317;-48
2023/03/09 00:33:48;;;;;;;0.90;0.90;;;;;;;8.70;100.00;96102.38;4128714;28;20313;-49
2023/03/09 00:35:49;;;;;;;1.42;1.02;;;;;;;8.66;100.00;96106.78;4120586;28;20252;-47
2023/03/09 00:37:51;;;;;;;2.13;0.70;;;;;;;8.66;100.00;96101.34;4095102;28;20219;-49
2023/03/09 00:39:52;;;;;;;1.63;0.90;;;;;;;8.69;100.00;96095.31;4126850;28;20202;-48
2023/03/09 00:41:54;;;;;;;0.70;0.70;;;;;;;8.62;100.00;96094.88;4138174;28;21191;-50
2023/03/09 00:43:59;;;;;;;2.58;1.00;;;;;;;8.65;100.00;96100.53;4129061;28;20281;-47
2023/03/09 00:46:01;;;;;;;0.88;0.88;;;;;;;8.58;100.00;96099.28;4120679;28;20210;-48
2023/03/09 00:48:03;;;;;;;1.02;1.00;;;;;;;8.61;100.00;96093.25;4121263;28;20289;-47
2023/03/09 00:50:07;;;;;;;1.42;1.20;;;;;;;8.54;100.00;96092.81;4136847;28;20332;-47
2023/03/09 00:52:08;;;;;;;1.10;1.10;;;;;;;8.57;100.00;96097.66;4129336;28;20233;-49
2023/03/09 00:54:12;;;;;;;1.55;1.13;;;;;;;8.57;100.00;96097.66;4119506;28;20695;-47
2023/03/09 00:56:25;;;;;;;0.95;0.90;;;;;;;8.60;100.00;96087.00;4127010;28;20244;-47
2023/03/09 00:58:27;;;;;;;0.95;0.90;;;;;;;8.58;100.00;96089.22;4137380;28;20261;-50
2023/03/09 01:00:32;;;;;;;1.63;1.08;;;;;;;8.64;100.00;96084.47;4138030;28;20213;-47
2023/03/09 01:02:34;;;;;;;1.15;1.00;;;;;;;8.67;100.00;96081.13;4122399;28;20250;-49
2023/03/09 01:04:36;;;;;;;1.17;1.08;;;;;;;8.62;100.00;96078.53;4106407;28;20294;-47
2023/03/09 01:06:37;;;;;;;1.23;1.00;;;;;;;8.66;100.00;96084.97;4123159;28;20217;-48
2023/03/09 01:08:39;;;;;;;0.82;0.80;;;;;;;8.62;100.00;96089.44;4129945;28;20289;-50
2023/03/09 01:10:42;;;;;;;1.33;0.90;;;;;;;8.64;100.00;96084.47;4128787;28;20289;-48
2023/03/09 01:12:43;;;;;;;1.75;1.27;;;;;;;8.66;100.00;96091.25;4125589;28;20258;-49
2023/03/09 01:14:47;;;;;;;3.05;1.25;;;;;;;8.70;100.00;96088.75;4121641;28;20509;-47
2023/03/09 01:16:48;;;;;;;1.45;0.95;;;;;;;8.73;100.00;96102.59;4120992;28;20210;-47
2023/03/09 01:18:50;;;;;;;1.77;0.75;;;;;;;8.74;100.00;96095.22;4128619;28;20653;-49
2023/03/09 01:20:52;;;;;;;1.15;0.90;;;;;;;8.74;100.00;96095.22;4136991;28;20292;-49
2023/03/09 01:22:53;;;;;;;3.65;1.17;;;;;;;8.76;100.00;96106.63;4128855;28;20217;-48
2023/03/09 01:24:55;;;;;;;3.17;1.00;;;;;;;8.79;100.00;96100.56;4120097;28;20636;-50
2023/03/09 01:26:57;;;;;;;0.82;0.80;;;;;;;8.82;100.00;96114.41;4128954;28;20202;-47
2023/03/09 01:28:59;;;;;;;1.42;0.90;;;;;;;8.87;100.00;96124.44;4121340;28;20214;-48
2023/03/09 01:31:05;;;;;;;3.50;0.90;;;;;;;8.89;100.00;96116.78;4136485;28;20237;-50
2023/03/09 01:33:07;;;;;;;2.80;0.93;;;;;;;8.92;100.00;96110.72;4121763;28;20587;-50
2023/03/09 01:35:09;;;;;;;1.50;1.20;;;;;;;8.92;100.00;96117.00;4126232;28;20230;-49
2023/03/09 01:37:11;;;;;;;1.52;0.90;;;;;;;8.91;100.00;96134.47;4138250;28;20293;-50
2023/03/09 01:39:12;;;;;;;3.13;1.02;;;;;;;8.93;100.00;96136.88;4126392;28;20210;-47
2023/03/09 01:41:16;;;;;;;1.55;1.00;;;;;;;8.91;100.00;96152.72;4127194;28;20317;-48
2023/03/09 01:43:28;;;;;;;1.20;1.10;;;;;;;8.89;100.00;96160.41;4121857;28;20673;-49
2023/03/09 01:45:30;;;;;;;1.17;1.08;;;;;;;8.86;100.00;96166.44;4121950;28;20337;-49
2023/03/09 01:47:31;;;;;;;3.88;1.80;;;;;;;8.86;100.00;96177.34;4120656;28;20718;-49
2023/03/09 01:49:42;;;;;;;5.43;2.17;;;;;;;8.86;100.00;96172.72;4112035;28;20215;-48
2023/03/09 01:51:55;;;;;;;1.88;1.52;;;;;;;8.81;100.00;96180.19;4138536;28;20265;-50
2023/03/09 01:53:59;;;;;;;3.33;1.48;;;;;;;8.80;100.00;96179.34;4120269;28;20206;-49
2023/03/09 01:56:01;;;;;;;1.50;1.40;;;;;;;8.79;100.00;96193.28;4137615;28;20233;-49
2023/03/09 01:58:24;;;;;;;1.70;1.60;;;;;;;8.79;100.00;96193.28;4126855;28;20241;-51
2023/03/09 02:00:26;;;;;;;2.22;1.90;;;;;;;8.78;100.00;96191.66;4118122;28;20301;-48
2023/03/09 02:02:29;;;;;;;1.58;1.42;;;;;;;8.78;100.00;96208.00;4120560;28;20240;-48
2023/03/09 02:04:51;;;;;;;1.80;1.67;;;;;;;8.78;100.00;96208.00;4136257;28;20237;-50
2023/03/09 02:06:53;;;;;;;1.98;1.13;;;;;;;8.74;100.00;96207.00;4117908;28;20302;-48
2023/03/09 02:09:07;;;;;;;1.88;0.88;;;;;;;8.70;100.00;96211.41;4111034;28;20303;-49
2023/03/09 02:11:11;;;;;;;1.83;1.58;;;;;;;8.71;100.00;96213.03;4118691;28;20775;-49
2023/03/09 02:13:16;;;;;;;0.90;0.90;;;;;;;8.64;100.00;96215.31;4136181;28;20766;-48
2023/03/09 02:15:22;;;;;;;2.15;1.20;;;;;;;8.64;100.00;96223.47;4126626;28;20256;-48
2023/03/09 02:17:24;;;;;;;2.45;1.75;;;;;;;8.60;100.00;96227.88;4121603;28;20297;-48
2023/03/09 02:19:37;;;;;;;1.25;1.15;;;;;;;8.59;100.00;96237.19;4121363;28;20652;-48
2023/03/09 02:21:46;;;;;;;3.10;1.45;;;;;;;8.55;100.00;96241.59;4115022;28;20572;-48
2023/03/09 02:23:54;;;;;;;1.15;1.13;;;;;;;8.56;100.00;96243.22;4112106;28;20293;-48
2023/03/09 02:26:21;;;;;;;2.25;1.10;;;;;;;8.53;100.00;96262.88;4136368;28;20236;-50
2023/03/09 02:28:22;;;;;;;1.10;1.00;;;;;;;8.48;100.00;96262.97;4122937;28;20265;-48
2023/03/09 02:30:25;;;;;;;3.22;1.20;;;;;;;8.49;100.00;96270.03;4128033;28;20360;-49
2023/03/09 02:32:32;;;;;;;2.50;1.10;;;;;;;8.45;100.00;96275.25;4119364;28;20324;-48
2023/03/09 02:34:34;;;;;;;1.63;1.20;;;;;;;8.47;100.00;96266.75;4104402;28;20333;-48
2023/03/09 02:36:35;;;;;;;2.25;1.20;;;;;;;8.44;100.00;96272.81;4120550;28;20325;-50
2023/03/09 02:38:37;;;;;;;1.42;1.27;;;;;;;8.37;100.00;96278.63;4120388;28;20238;-47
2023/03/09 02:40:39;;;;;;;2.60;1.30;;;;;;;8.40;100.00;96282.66;4128198;28;20640;-48
2023/03/09 02:42:43;;;;;;;4.03;1.70;;;;;;;8.41;100.00;96284.31;4114871;28;20222;-48
2023/03/09 02:44:44;;;;;;;2.70;1.77;;;;;;;8.35;100.00;96286.25;4111407;28;20238;-47
2023/03/09 02:46:46;;;;;;;4.55;2.35;;;;;;;8.34;100.00;96294.75;4125645;28;20309;-47
2023/03/09 02:48:48;;;;;;;1.67;1.58;;;;;;;8.34;100.00;96297.47;4134226;28;20252;-50
2023/03/09 02:50:49;;;;;;;1.90;1.80;;;;;;;8.32;100.00;96296.91;4122664;28;20250;-49
2023/03/09 02:52:52;;;;;;;1.52;1.42;;;;;;;8.37;100.00;96302.31;4118337;28;20314;-48
2023/03/09 02:54:53;;;;;;;2.15;1.98;;;;;;;8.31;100.00;96311.66;4120924;28;20297;-47
2023/03/09 02:56:55;;;;;;;1.83;1.73;;;;;;;8.31;100.00;96328.00;4121503;28;20758;-49
2023/03/09 02:58:56;;;;;;;2.20;2.03;;;;;;;8.31;100.00;96317.91;4136336;28;20211;-49
2023/03/09 03:00:58;;;;;;;3.60;1.67;;;;;;;8.27;100.00;96332.38;4120397;28;20245;-48
2023/03/09 03:03:00;;;;;;;3.10;2.22;;;;;;;8.33;100.00;96342.13;4123640;28;20256;-48
2023/03/09 03:05:02;;;;;;;2.67;2.05;;;;;;;8.32;100.00;96341.34;4119361;28;20302;-48
2023/03/09 03:07:04;;;;;;;2.40;2.30;;;;;;;8.28;100.00;96344.94;4112615;28;20637;-49
2023/03/09 03:09:06;;;;;;;2.45;2.25;;;;;;;8.30;100.00;96348.16;4126353;28;20382;-51
2023/03/09 03:11:07;;;;;;;3.42;2.10;;;;;;;8.27;100.00;96363.19;4119460;28;20646;-50
2023/03/09 03:13:09;;;;;;;2.33;1.65;;;;;;;8.27;100.00;96370.53;4125674;28;20230;-49
2023/03/09 03:15:11;;;;;;;2.60;2.17;;;;;;;8.24;100.00;96368.38;4126872;28;20536;-49
2023/03/09 03:17:13;;;;;;;2.83;2.58;;;;;;;8.35;100.00;96383.53;4125619;28;20647;-51
2023/03/09 03:19:15;;;;;;;2.53;2.33;;;;;;;8.35;100.00;96378.09;4126201;28;20298;-48
2023/03/09 03:21:17;;;;;;;2.60;2.40;;;;;;;8.28;100.00;96393.97;4126111;28;20244;-47
2023/03/09 03:23:18;;;;;;;2.85;2.33;;;;;;;8.30;100.00;96381.66;4118263;28;20862;-48
2023/03/09 03:25:20;;;;;;;3.50;2.05;;;;;;;8.28;100.00;96383.06;4107543;28;20217;-48
2023/03/09 03:27:22;;;;;;;2.20;2.08;;;;;;;8.32;100.00;96395.00;4118278;28;20301;-48
2023/03/09 03:29:24;;;;;;;4.90;1.92;;;;;;;8.32;100.00;96405.91;4117681;28;20294;-50
2023/03/09 03:31:25;;;;;;;3.33;2.50;;;;;;;8.32;100.00;96397.72;4123969;28;20248;-50
2023/03/09 03:33:27;;;;;;;4.20;2.10;;;;;;;8.33;100.00;96407.50;4129348;28;20238;-48
2023/03/09 03:35:29;;;;;;;2.00;1.88;;;;;;;8.32;100.00;96405.91;4119102;28;20294;-47
2023/03/09 03:37:30;;;;;;;3.95;2.22;;;;;;;8.31;100.00;96417.91;4118584;28;20210;-49
2023/03/09 03:39:32;;;;;;;5.95;2.63;;;;;;;8.29;100.00;96406.47;4119528;28;21188;-48
2023/03/09 03:41:34;;;;;;;4.40;2.38;;;;;;;8.31;100.00;96426.06;4119154;28;20261;-49
2023/03/09 03:43:36;;;;;;;2.97;2.30;;;;;;;8.34;100.00;96428.25;4119141;28;20241;-48
2023/03/09 03:45:37;;;;;;;5.13;2.45;;;;;;;8.33;100.00;96423.88;4118262;28;20642;-48
2023/03/09 03:47:40;;;;;;;3.13;1.83;;;;;;;8.34;100.00;96434.47;4117985;28;20237;-48
2023/03/09 03:49:41;;;;;;;7.28;3.00;;;;;;;8.36;100.00;96439.66;4121257;28;20206;-49
2023/03/09 03:51:43;;;;;;;5.18;2.58;;;;;;;8.29;100.00;96448.16;4125763;28;20762;-49
2023/03/09 03:53:45;;;;;;;2.92;2.63;;;;;;;8.28;100.00;96459.34;4127335;28;20253;-50
2023/03/09 03:55:46;;;;;;;3.58;2.67;;;;;;;8.30;100.00;96457.94;4121682;28;20293;-46
2023/03/09 03:57:48;;;;;;;3.47;3.17;;;;;;;8.31;100.00;96464.22;4137864;28;20255;-48
2023/03/09 03:59:50;;;;;;;6.57;2.60;;;;;;;8.26;100.00;96462.34;4127546;28;20834;-47
2023/03/09 04:01:52;;;;;;;6.47;3.03;;;;;;;8.23;100.00;96465.63;4127047;28;20312;-49
2023/03/09 04:03:54;;;;;;;6.47;3.08;;;;;;;8.23;100.00;96475.72;4126352;28;20293;-48
2023/03/09 04:05:55;;;;;;;4.55;2.95;;;;;;;8.25;100.00;96481.69;4113771;28;20261;-49
2023/03/09 04:07:57;;;;;;;7.40;3.30;;;;;;;8.25;100.00;96482.53;4129357;28;20245;-47
2023/03/09 04:09:59;;;;;;;4.35;2.85;;;;;;;8.27;100.00;96474.03;4121086;28;20735;-47
2023/03/09 04:12:00;;;;;;;5.53;2.83;;;;;;;8.31;100.00;96491.47;4114299;28;20349;-47
2023/03/09 04:14:02;;;;;;;4.97;2.67;;;;;;;8.31;100.00;96496.91;4130141;28;20256;-47
2023/03/09 04:16:04;;;;;;;8.93;3.13;;;;;;;8.30;100.00;96500.72;4130367;28;20286;-47
2023/03/09 04:18:06;;;;;;;6.65;2.88;;;;;;;8.30;100.00;96511.63;4138477;28;20676;-48
2023/03/09 04:20:09;;;;;;;6.32;2.85;;;;;;;8.31;100.00;96502.34;4106880;28;20307;-48
2023/03/09 04:22:11;;;;;;;5.10;2.85;;;;;;;8.29;100.00;96504.56;4123857;28;20592;-48
2023/03/09 04:24:12;;;;;;;8.88;3.47;;;;;;;8.31;100.00;96505.06;4129689;28;20268;-48
2023/03/09 04:26:14;;;;;;;3.95;2.65;;;;;;;8.26;100.00;96505.94;4122653;28;20601;-50
2023/03/09 04:28:16;;;;;;;8.50;3.08;;;;;;;8.24;100.00;96524.50;4123435;28;20310;-48
2023/03/09 04:30:20;;;;;;;7.90;2.25;;;;;;;8.26;100.00;96521.47;4122126;28;20298;-47
2023/03/09 04:32:22;;;;;;;5.03;2.75;;;;;;;8.26;100.00;96529.63;4140815;28;20233;-47
2023/03/09 04:34:23;;;;;;;10.27;2.60;;;;;;;8.24;100.00;96529.94;4139691;28;20209;-47
2023/03/09 04:36:25;;;;;;;10.40;2.45;;;;;;;8.25;100.00;96530.72;4127999;28;20245;-48
2023/03/09 04:38:27;;;;;;;6.93;3.17;;;;;;;8.21;100.00;96530.50;4124118;28;20244;-47
2023/03/09 04:40:28;;;;;;;5.13;2.63;;;;;;;8.25;100.00;96534.28;4123804;28;20216;-48
2023/03/09 04:42:30;;;;;;;6.15;2.97;;;;;;;8.23;100.00;96541.09;4128601;28;20315;-47
2023/03/09 04:44:32;;;;;;;6.82;3.40;;;;;;;8.26;100.00;96538.63;4122465;28;20214;-49
2023/03/09 04:46:33;;;;;;;4.72;2.97;;;;;;;8.20;100.00;96550.66;4122853;28;20221;-48
2023/03/09 04:48:35;;;;;;;8.73;3.00;;;;;;;8.15;100.00;96560.75;4123977;28;20304;-48
2023/03/09 04:50:37;;;;;;;7.63;2.70;;;;;;;8.17;100.00;96566.72;4122909;28;20300;-48
2023/03/09 04:52:38;;;;;;;3.95;1.88;;;;;;;8.19;100.00;96551.75;4122952;28;20662;-47
2023/03/09 04:54:40;;;;;;;5.32;2.35;;;;;;;8.22;100.00;96553.91;4126609;28;20241;-49
2023/03/09 04:56:42;;;;;;;8.48;2.78;;;;;;;8.15;100.00;96558.81;4120392;28;20297;-46
2023/03/09 04:58:44;;;;;;;7.88;3.00;;;;;;;8.20;100.00;96564.28;4123180;28;20408;-48
2023/03/09 05:00:45;;;;;;;8.75;2.67;;;;;;;8.23;100.00;96560.19;4122098;28;20198;-48
2023/03/09 05:02:47;;;;;;;6.80;2.67;;;;;;;8.21;100.00;96554.22;4122515;28;20630;-47
2023/03/09 05:04:49;;;;;;;6.43;2.20;;;;;;;8.23;100.00;96560.19;4140235;28;20213;-47
2023/03/09 05:06:51;;;;;;;8.32;2.97;;;;;;;8.20;100.00;96552.56;4125598;28;20237;-47
2023/03/09 05:08:53;;;;;;;4.40;2.28;;;;;;;8.21;100.00;96562.38;4122837;28;20214;-47
2023/03/09 05:10:54;;;;;;;13.35;2.30;;;;;;;8.20;100.00;96566.19;4123489;28;20321;-48
2023/03/09 05:12:56;;;;;;;5.53;2.53;;;;;;;8.20;100.00;96577.06;4122393;28;20241;-49
2023/03/09 05:14:58;;;;;;;4.63;2.00;;;;;;;8.24;100.00;96572.69;4121376;28;20214;-47
2023/03/09 05:17:00;;;;;;;6.70;2.85;;;;;;;8.29;100.00;96575.41;4134930;28;20206;-48
2023/03/09 05:19:02;;;;;;;6.10;2.50;;;;;;;8.28;100.00;96571.03;4127197;28;20214;-48
2023/03/09 05:21:07;;;;;;;9.68;3.20;;;;;;;8.28;100.00;96573.78;4111818;28;20714;-47
2023/03/09 05:23:09;;;;;;;7.32;2.90;;;;;;;8.30;100.00;96587.91;4140203;28;20284;-49
2023/03/09 05:25:11;;;;;;;10.52;2.30;;;;;;;8.34;100.00;96591.72;4138871;28;20292;-47
2023/03/09 05:27:13;;;;;;;10.18;3.30;;;;;;;8.39;100.00;96588.94;4136708;28;20221;-47
2023/03/09 05:29:14;;;;;;;6.35;2.00;;;;;;;8.40;100.00;96590.56;4134293;28;20213;-47
2023/03/09 05:31:16;;;;;;;14.90;4.00;;;;;;;8.30;100.00;96583.25;4135491;28;20272;-47
2023/03/09 05:33:18;;;;;;;14.30;3.70;;;;;;;8.33;100.00;96593.63;4124223;28;20659;-48
2023/03/09 05:35:20;;;;;;;9.10;2.83;;;;;;;8.33;100.00;96598.25;4122677;28;20754;-48
2023/03/09 05:37:21;;;;;;;9.77;1.67;;;;;;;8.39;100.00;96597.09;4121128;28;20696;-47
2023/03/09 05:39:24;;;;;;;6.43;2.90;;;;;;;8.36;100.00;96597.69;4119557;28;20638;-48
2023/03/09 05:41:25;;;;;;;5.07;2.85;;;;;;;8.34;100.00;96599.88;4105615;28;20317;-48
2023/03/09 05:43:27;;;;;;;9.13;2.95;;;;;;;8.33;100.00;96598.25;4135592;28;20750;-47
2023/03/09 05:45:29;;;;;;;8.57;3.22;;;;;;;8.29;100.00;96608.09;4122977;28;20206;-47
2023/03/09 05:47:31;;;;;;;8.10;2.90;;;;;;;8.30;100.00;96607.00;4120637;28;20759;-48
2023/03/09 05:49:33;;;;;;;5.68;2.20;;;;;;;8.28;100.00;96609.19;4123644;28;20210;-47
2023/03/09 05:51:35;;;;;;;7.68;3.15;;;;;;;8.29;100.00;96608.88;4135421;28;20279;-47
2023/03/09 05:53:37;;;;;;;8.25;2.95;;;;;;;8.28;100.00;96617.38;4135469;28;20633;-47
2023/03/09 05:55:38;;;;;;;8.18;2.47;;;;;;;8.25;100.00;96617.91;4119759;28;20210;-49
2023/03/09 05:57:40;;;;;;;6.53;3.90;;;;;;;8.27;100.00;96621.16;4125209;28;20214;-48
2023/03/09 05:59:42;;;;;;;8.25;3.38;;;;;;;8.24;100.00;96621.72;4137021;28;20236;-47
2023/03/09 06:01:44;;;;;;;5.68;2.60;;;;;;;8.29;100.00;96630.69;4113735;28;20226;-48
2023/03/09 06:03:46;;;;;;;4.15;2.38;;;;;;;8.31;100.00;96635.84;4117051;28;20220;-47
2023/03/09 06:05:47;;;;;;;8.43;3.03;;;;;;;8.32;100.00;96635.59;4118633;28;20266;-49
2023/03/09 06:07:51;;;;;;;5.30;2.80;;;;;;;8.28;100.00;96639.16;4118750;28;20210;-48
2023/03/09 06:09:53;;;;;;;7.95;2.35;;;;;;;8.28;100.00;96642.69;4120041;28;20214;-48
2023/03/09 06:11:56;;;;;;;4.40;2.10;;;;;;;8.30;100.00;96636.97;4134029;28;20229;-47
2023/03/09 06:13:58;;;;;;;8.75;3.25;;;;;;;8.27;100.00;96642.94;4125620;28;20256;-47
2023/03/09 06:16:07;;;;;;;7.63;2.78;;;;;;;8.28;100.00;96644.59;4120582;28;20206;-48
2023/03/09 06:18:09;;;;;;;8.07;2.47;;;;;;;8.26;100.00;96658.50;4103461;28;20664;-47
2023/03/09 06:20:11;;;;;;;4.68;2.63;;;;;;;8.27;100.00;96653.84;4117281;28;20230;-47
2023/03/09 06:22:12;;;;;;;2.90;2.67;;;;;;;8.24;100.00;96659.88;4120800;28;20226;-48
2023/03/09 06:24:14;;;;;;;5.03;2.42;;;;;;;8.27;100.00;96671.03;4121945;28;20202;-47
2023/03/09 06:26:18;;;;;;;7.72;2.65;;;;;;;8.24;100.00;96681.66;4135478;28;20213;-47
2023/03/09 06:28:20;;;;;;;7.32;3.80;;;;;;;8.24;100.00;96684.38;4119910;28;20215;-49
2023/03/09 06:30:22;;;;;;;5.05;2.60;;;;;;;8.27;100.00;96681.91;4137393;28;20675;-47
2023/03/09 06:32:24;;;;;;;2.28;2.08;;;;;;;8.31;100.00;96687.63;4117881;28;20265;-48
2023/03/09 06:34:30;;;;;;;6.30;2.88;;;;;;;8.24;100.00;96692.56;4118947;28;20613;-47
2023/03/09 06:36:34;;;;;;;3.92;2.80;;;;;;;8.28;100.00;96704.53;4118449;28;20407;-47
2023/03/09 06:38:35;;;;;;;7.50;2.30;;;;;;;8.27;100.00;96697.44;4108996;28;20207;-49
2023/03/09 06:40:38;;;;;;;3.90;2.20;;;;;;;8.33;100.00;96701.78;4124960;28;20696;-48
2023/03/09 06:42:41;;;;;;;8.15;2.20;;;;;;;8.30;100.00;96710.53;4122043;28;20502;-49
2023/03/09 06:44:45;;;;;;;2.97;1.88;;;;;;;8.31;100.00;96712.16;4093328;28;20245;-50
2023/03/09 06:46:46;;;;;;;3.17;1.98;;;;;;;8.27;100.00;96713.78;4101503;28;20207;-52
2023/03/09 06:48:48;;;;;;;5.43;1.67;;;;;;;8.28;100.00;96715.44;4121158;28;20260;-47
2023/03/09 06:50:50;;;;;;;4.32;2.30;;;;;;;8.29;100.00;96722.53;4138749;28;20675;-48
2023/03/09 06:52:52;;;;;;;7.28;2.50;;;;;;;8.33;100.00;96721.69;4103992;28;20398;-48
2023/03/09 06:54:54;;;;;;;9.43;2.75;;;;;;;8.30;100.00;96735.84;4122917;28;20835;-48
2023/03/09 06:57:15;;;;;;;6.05;2.17;;;;;;;8.27;100.00;96736.41;4112720;28;20687;-48
2023/03/09 06:59:16;;;;;;;5.18;2.25;;;;;;;8.24;100.00;96744.31;4117689;28;20203;-47
2023/03/09 07:01:18;;;;;;;4.50;2.33;;;;;;;8.31;100.00;96742.94;4116467;28;20260;-50
2023/03/09 07:03:21;;;;;;;2.97;1.95;;;;;;;8.32;100.00;96747.28;4121162;28;20241;-47
2023/03/09 07:05:23;;;;;;;9.93;2.15;;;;;;;8.31;100.00;96748.41;4119852;28;20270;-47
2023/03/09 07:07:25;;;;;;;3.38;1.90;;;;;;;8.32;100.00;96760.09;4122028;28;20300;-48
2023/03/09 07:09:26;;;;;;;4.82;1.88;;;;;;;8.32;100.00;96765.53;4118081;28;20238;-47
2023/03/09 07:11:28;;;;;;;7.15;1.60;;;;;;;8.30;100.00;96767.75;4124048;28;20325;-46
2023/03/09 07:13:32;;;;;;;2.90;1.88;;;;;;;8.31;100.00;96769.38;4119172;28;20223;-48
2023/03/09 07:15:35;;;;;;;3.58;1.88;;;;;;;8.29;100.00;96780.53;4120311;28;20707;-46
2023/03/09 07:17:37;;;;;;;3.60;1.80;;;;;;;8.30;100.00;96779.44;4135968;28;20249;-47
2023/03/09 07:19:39;;;;;;;3.42;1.98;;;;;;;8.29;100.00;96783.25;4125411;28;20214;-46
2023/03/09 07:21:41;;;;;;;4.60;2.53;;;;;;;8.34;100.00;96790.63;4126601;28;20237;-47
2023/03/09 07:23:43;;;;;;;4.43;2.88;;;;;;;8.33;100.00;96794.41;4124818;28;20238;-48
2023/03/09 07:25:44;;;;;;;4.38;3.03;;;;;;;8.31;100.00;96797.44;4134898;28;20209;-48
2023/03/09 07:27:48;;;;;;;5.03;3.40;;;;;;;8.33;100.00;96795.25;4119223;28;20662;-47
2023/03/09 07:29:50;;;;;;;4.63;2.88;;;;;;;8.35;100.00;96795.78;4135725;28;20205;-48
2023/03/09 07:31:59;;;;;;;5.68;3.53;;;;;;;8.39;100.00;96793.31;4120350;28;20261;-47
2023/03/09 07:34:02;;;;;;;7.75;3.88;;;;;;;8.44;100.00;96809.66;4119850;28;20303;-47
2023/03/09 07:36:05;;;;;;;6.85;4.53;;;;;;;8.40;100.00;96809.38;4105587;28;20215;-48
2023/03/09 07:38:07;;;;;;;6.47;3.30;;;;;;;8.43;100.00;96816.19;4116975;28;20643;-48
2023/03/09 07:40:10;;;;;;;5.15;3.53;;;;;;;8.43;100.00;96816.19;4119842;28;20210;-48
2023/03/09 07:42:12;;;;;;;5.45;3.28;;;;;;;8.47;100.00;96819.97;4120404;28;20236;-48
2023/03/09 07:44:30;;;;;;;5.25;3.28;;;;;;;8.52;100.00;96814.50;4108373;28;20198;-48
2023/03/09 07:46:35;;;;;;;8.18;3.42;;;;;;;8.58;100.00;96814.22;4117414;28;20656;-46
2023/03/09 07:48:47;;;;;;;5.97;4.05;;;;;;;8.65;100.00;96825.66;4127082;28;20210;-47
2023/03/09 07:50:59;;;;;;;7.75;3.90;;;;;;;8.67;100.00;96828.06;4119835;28;20229;-48
2023/03/09 07:53:00;;;;;;;6.03;2.92;;;;;;;8.65;100.00;96835.72;4136130;28;20228;-47
2023/03/09 07:55:03;;;;;;;5.43;3.83;;;;;;;8.58;100.00;96841.50;4127350;28;20257;-47
2023/03/09 07:57:12;;;;;;;7.55;3.33;;;;;;;8.63;100.00;96838.72;4120966;28;20321;-46
2023/03/09 07:59:17;;;;;;;7.00;3.65;;;;;;;8.56;100.00;96856.50;4118531;28;20233;-47
2023/03/09 08:01:19;;;;;;;8.75;2.80;;;;;;;8.62;100.00;96849.94;4121481;28;20272;-48
2023/03/09 08:03:20;;;;;;;7.90;2.08;;;;;;;8.59;100.00;96854.03;4124806;28;20210;-47
2023/03/09 08:05:22;;;;;;;7.65;2.55;;;;;;;8.60;100.00;96860.28;4126306;28;20210;-47
2023/03/09 08:07:24;;;;;;;7.07;2.00;;;;;;;8.61;100.00;96859.19;4126490;28;20217;-47
2023/03/09 08:09:27;;;;;;;6.53;2.63;;;;;;;8.64;100.00;96861.38;4116677;28;20202;-45
2023/03/09 08:11:36;;;;;;;5.25;2.78;;;;;;;8.64;100.00;96858.63;4115958;28;20636;-47
2023/03/09 08:13:38;;;;;;;6.28;2.15;;;;;;;8.70;100.00;96854.78;4125331;28;20222;-47
2023/03/09 08:15:40;;;;;;;10.57;2.70;;;;;;;8.76;100.00;96859.13;4122026;28;20205;-47
2023/03/09 08:17:42;;;;;;;5.15;2.10;;;;;;;8.75;100.00;96868.41;4118825;28;20700;-46
2023/03/09 08:19:44;;;;;;;6.13;1.92;;;;;;;8.77;100.00;96871.69;4132391;28;20284;-46
2023/03/09 08:21:46;;;;;;;7.35;2.05;;;;;;;8.83;100.00;96870.56;4122107;28;20257;-46
2023/03/09 08:23:48;;;;;;;6.13;2.40;;;;;;;8.85;100.00;96868.34;4123263;28;20289;-46
2023/03/09 08:25:53;;;;;;;4.95;1.80;;;;;;;8.86;100.00;96870.81;4117396;28;20268;-47
2023/03/09 08:27:56;;;;;;;13.02;3.15;;;;;;;8.90;100.00;96876.53;4132653;28;20206;-48
2023/03/09 08:29:58;;;;;;;4.85;2.30;;;;;;;8.88;100.00;96881.47;4133598;28;20204;-47
2023/03/09 08:32:08;;;;;;;3.90;2.28;;;;;;;8.97;100.00;96888.78;4121076;28;20304;-49
2023/03/09 08:34:10;;;;;;;9.25;2.00;;;;;;;9.00;100.00;96884.66;4133828;28;20233;-49
2023/03/09 08:36:15;;;;;;;12.65;3.00;;;;;;;9.02;100.00;96896.13;4121422;28;20207;-49
2023/03/09 08:38:17;;;;;;;7.20;2.58;;;;;;;9.05;100.00;96901.00;4120458;28;20320;-48
2023/03/09 08:40:19;;;;;;;6.57;2.30;;;;;;;9.09;100.00;96886.53;4124318;28;20206;-49
2023/03/09 08:42:27;;;;;;;10.27;3.28;;;;;;;9.09;100.00;96913.81;4121353;28;20599;-49
2023/03/09 08:44:29;;;;;;;9.18;1.75;;;;;;;9.11;100.00;96903.44;4125942;28;20654;-48
2023/03/09 08:46:30;;;;;;;4.07;2.05;;;;;;;9.11;100.00;96906.16;4119666;28;20210;-49
2023/03/09 08:48:32;;;;;;;7.00;2.45;;;;;;;9.19;100.00;96910.22;4120184;28;20241;-48
2023/03/09 08:50:34;;;;;;;12.05;3.20;;;;;;;9.20;100.00;96914.56;4116673;28;20279;-48
2023/03/09 08:52:39;;;;;;;13.68;2.45;;;;;;;9.21;100.00;96921.69;4121367;28;20243;-48
2023/03/09 08:54:42;;;;;;;10.80;2.35;;;;;;;9.22;100.00;96917.84;4129187;28;20268;-47
2023/03/09 08:56:44;;;;;;;6.25;2.72;;;;;;;9.23;100.00;96917.56;4120453;28;20727;-46
2023/03/09 08:58:47;;;;;;;5.55;1.95;;;;;;;9.26;100.00;96936.09;4119022;28;20293;-46
2023/03/09 09:00:48;;;;;;;6.18;2.05;;;;;;;9.22;100.00;96923.31;4122923;28;20203;-47
2023/03/09 09:02:53;;;;;;;11.23;2.75;;;;;;;9.25;100.00;96925.47;4123285;28;20226;-46
2023/03/09 09:04:55;;;;;;;6.50;1.98;;;;;;;9.21;100.00;96932.59;4112187;28;20226;-46
2023/03/09 09:06:56;;;;;;;6.35;2.30;;;;;;;9.31;100.00;96940.72;4130577;28;20679;-46
2023/03/09 09:08:58;;;;;;;13.68;2.15;;;;;;;9.30;100.00;96941.81;4121383;28;20238;-47
2023/03/09 09:11:05;;;;;;;12.25;2.63;;;;;;;9.27;100.00;96939.63;4127273;28;20206;-47
2023/03/09 09:13:07;;;;;;;5.45;1.80;;;;;;;9.25;100.00;96942.66;4128725;28;20260;-47
2023/03/09 09:15:10;;;;;;;13.30;1.60;;;;;;;9.25;100.00;96947.28;4126977;28;20288;-47
2023/03/09 09:17:12;;;;;;;6.75;2.10;;;;;;;9.29;100.00;96965.56;4111970;28;20207;-48
2023/03/09 09:19:13;;;;;;;12.65;1.95;;;;;;;9.26;100.00;96962.56;4121943;28;20207;-47
2023/03/09 09:21:16;;;;;;;8.57;2.10;;;;;;;9.32;100.00;96956.00;4124035;28;20222;-47
2023/03/09 09:23:18;;;;;;;4.88;1.83;;;;;;;9.31;100.00;96954.38;4106098;28;21147;-47
2023/03/09 09:25:20;;;;;;;7.28;2.55;;;;;;;9.40;100.00;96958.97;4125704;28;20583;-47
2023/03/09 09:27:21;;;;;;;5.82;1.75;;;;;;;9.40;100.00;96964.44;4129738;28;20238;-47
2023/03/09 09:29:23;;;;;;;12.38;2.55;;;;;;;9.47;100.00;96964.94;4126764;28;20248;-47
2023/03/09 09:31:25;;;;;;;9.57;2.70;;;;;;;9.49;100.00;96961.94;4126172;28;20303;-47
2023/03/09 09:33:28;;;;;;;3.67;1.95;;;;;;;9.54;100.00;96970.91;4102733;28;20663;-47
2023/03/09 09:35:29;;;;;;;10.13;3.10;;;;;;;9.59;100.00;96962.69;4127867;28;20316;-47
2023/03/09 09:37:31;;;;;;;7.40;3.35;;;;;;;9.64;100.00;96959.09;4135765;28;20634;-47
2023/03/09 09:39:33;;;;;;;10.80;2.60;;;;;;;9.70;100.00;96963.44;4139939;28;20232;-46